SEAM/ATF METAR and TAF weather

Enter ICAO airport designator
Station Type Date Time Source
SEAM METAR 2020/10/29 17:00 UTC NOAA

SEAM 291700Z 19004KT 9999 FEW015 26/10 Q1024


Station Type Date Time Source
SEAM Decoded METAR 2020/10/29 17:00 UTC NOAA

Ambato / Chachoan, Ecuador (SEAM) 01-12S 078-34W
Oct 29, 2020 - 01:00 PM EDT / 2020.10.29 1700 UTC
Wind: from the S (190 degrees) at 5 MPH (4 KT):0
Visibility: greater than 7 mile(s):0
Sky conditions: mostly clear
Temperature: 78 F (26 C)
Dew Point: 50 F (10 C)
Relative Humidity: 36%
Pressure (altimeter): 30.24 in. Hg (1024 hPa)
ob: SEAM 291700Z 19004KT 9999 FEW015 26/10 Q1024
cycle: 17

Station Type Date Time Source
SEAM TAF UTC NOAA

Error!

Example: see airport list